createdAt,value
2018-12-21T00:00:33.023Z,85.8
2018-12-21T00:01:45.261Z,86.2
2018-12-21T00:02:57.399Z,86.2
2018-12-21T00:04:09.511Z,86
2018-12-21T00:05:21.830Z,85.2
2018-12-21T00:06:33.897Z,86.1
2018-12-21T00:07:46.155Z,86.2
2018-12-21T00:08:58.651Z,85.8
2018-12-21T00:10:11.040Z,85.4
2018-12-21T00:11:22.760Z,85.5
2018-12-21T00:12:34.969Z,85.5
2018-12-21T00:13:47.145Z,85.2
2018-12-21T00:14:59.346Z,85.3
2018-12-21T00:16:11.543Z,85.8
2018-12-21T00:17:23.750Z,85.3
2018-12-21T00:18:35.927Z,85.3
2018-12-21T00:19:48.123Z,85.8
2018-12-21T00:21:00.325Z,86.1
2018-12-21T00:22:12.439Z,86.4
2018-12-21T00:23:24.634Z,86
2018-12-21T00:24:36.837Z,86
2018-12-21T00:25:49.033Z,85.8
2018-12-21T00:27:01.268Z,85.8
2018-12-21T00:28:13.501Z,85.8
2018-12-21T00:29:25.752Z,85.8
2018-12-21T00:30:37.812Z,85.1
2018-12-21T00:31:50.032Z,84.6
2018-12-21T00:33:02.270Z,84.9
2018-12-21T00:34:14.487Z,85.4
2018-12-21T00:35:26.842Z,85.5
2018-12-21T00:36:38.885Z,85.3
2018-12-21T00:37:51.058Z,85.1
2018-12-21T00:39:03.182Z,84.8
2018-12-21T00:40:15.462Z,84.5
2018-12-21T00:41:27.744Z,84.9
2018-12-21T00:42:39.876Z,84.6
2018-12-21T00:43:51.966Z,85.7
2018-12-21T00:45:04.255Z,85
2018-12-21T00:46:16.434Z,85
2018-12-21T00:47:28.636Z,85
2018-12-21T00:48:40.810Z,85.2
2018-12-21T00:49:52.936Z,85.1
2018-12-21T00:51:05.223Z,84.8
2018-12-21T00:52:17.452Z,84.3
2018-12-21T00:53:29.610Z,85.1
2018-12-21T00:54:41.797Z,84.8
2018-12-21T00:55:53.982Z,84.7
2018-12-21T00:57:06.177Z,84.2
2018-12-21T00:58:18.303Z,84.7
2018-12-21T00:59:30.727Z,84.4
2018-12-21T01:00:42.763Z,84.3
2018-12-21T01:01:54.955Z,84.2
2018-12-21T01:03:07.161Z,84.4
2018-12-21T01:04:19.391Z,84.2
2018-12-21T01:05:31.658Z,84.1
2018-12-21T01:06:43.755Z,83.7
2018-12-21T01:07:55.962Z,84
2018-12-21T01:09:08.140Z,84
2018-12-21T01:10:20.334Z,84.7
2018-12-21T01:11:32.777Z,84.3
2018-12-21T01:12:44.727Z,84.3
2018-12-21T01:13:56.842Z,84
2018-12-21T01:15:09.119Z,84
2018-12-21T01:16:21.436Z,84.3
2018-12-21T01:17:33.513Z,84.1
2018-12-21T01:18:45.697Z,84.2
2018-12-21T01:19:57.887Z,84.6
2018-12-21T01:21:10.239Z,84.1
2018-12-21T01:22:22.253Z,84.4
2018-12-21T01:23:34.486Z,84.4
2018-12-21T01:24:46.594Z,84.3
2018-12-21T01:25:58.853Z,84.4
2018-12-21T01:27:10.977Z,84.1
2018-12-21T01:28:23.389Z,84.3
2018-12-21T01:29:35.462Z,84.6
2018-12-21T01:30:47.643Z,83.5
2018-12-21T01:31:59.836Z,83.3
2018-12-21T01:33:12.026Z,84.2
2018-12-21T01:34:24.153Z,84.2
2018-12-21T01:35:36.421Z,83.7
2018-12-21T01:36:48.602Z,84.1
2018-12-21T01:38:00.800Z,83.5
2018-12-21T01:39:12.912Z,83.2
2018-12-21T01:40:25.752Z,83.8
2018-12-21T01:41:37.410Z,83.1
2018-12-21T01:42:49.606Z,83.4
2018-12-21T01:44:01.815Z,83.3
2018-12-21T01:45:13.980Z,83.2
2018-12-21T01:46:26.156Z,83.4
2018-12-21T01:47:38.272Z,83.3
2018-12-21T01:48:50.531Z,83.5
2018-12-21T01:50:02.663Z,83.8
2018-12-21T01:51:14.942Z,83.7
2018-12-21T01:52:27.127Z,83.2
2018-12-21T01:53:39.403Z,83
2018-12-21T01:54:51.513Z,83.2
2018-12-21T01:56:03.718Z,83.2
2018-12-21T01:57:16.010Z,83.2
2018-12-21T01:58:28.087Z,83.2
2018-12-21T01:59:40.376Z,83.2
2018-12-21T02:02:04.701Z,83
2018-12-21T02:03:16.925Z,83
2018-12-21T02:04:29.062Z,83.1
2018-12-21T02:05:41.346Z,83
2018-12-21T02:06:53.449Z,82.9
2018-12-21T02:08:05.569Z,83
2018-12-21T02:09:17.883Z,82.9
2018-12-21T02:10:30.046Z,82.9
2018-12-21T02:11:42.152Z,82.8
2018-12-21T02:12:54.543Z,82.9
2018-12-21T02:14:06.531Z,82.7
2018-12-21T02:15:18.728Z,83.1
2018-12-21T02:16:30.991Z,83.3
2018-12-21T02:17:43.220Z,82.7
2018-12-21T02:18:55.470Z,83.1
2018-12-21T02:20:07.508Z,83
2018-12-21T02:21:19.803Z,82.6
2018-12-21T02:22:31.897Z,82.8
2018-12-21T02:23:44.193Z,82.9
2018-12-21T02:24:56.354Z,82.9
2018-12-21T02:26:08.579Z,83.5
2018-12-21T02:27:20.760Z,83.1
2018-12-21T02:28:32.965Z,83.5
2018-12-21T02:29:45.232Z,83.9
2018-12-21T02:30:57.347Z,83.5
2018-12-21T02:32:10.879Z,83.3
2018-12-21T02:33:21.809Z,83.1
2018-12-21T02:34:33.945Z,83.5
2018-12-21T02:35:46.030Z,84
2018-12-21T02:36:58.215Z,83.2
2018-12-21T02:38:10.504Z,83.2
2018-12-21T02:39:22.714Z,83.4
2018-12-21T02:40:38.398Z,83.2
2018-12-21T02:41:47.632Z,83.5
2018-12-21T02:42:59.345Z,83.4
2018-12-21T02:44:11.392Z,83.3
2018-12-21T02:45:23.572Z,83.4
2018-12-21T02:46:35.844Z,83.4
2018-12-21T02:47:47.964Z,83.4
2018-12-21T02:49:00.258Z,83.4
2018-12-21T02:50:12.449Z,83
2018-12-21T02:51:24.665Z,83.4
2018-12-21T02:52:36.743Z,83.8
2018-12-21T02:53:49.113Z,83.5
2018-12-21T02:55:01.389Z,83.8
2018-12-21T02:56:13.317Z,83.5
2018-12-21T02:57:25.511Z,83.1
2018-12-21T02:58:37.788Z,83.2
2018-12-21T02:59:49.980Z,83.3
2018-12-21T03:01:02.162Z,83.2
2018-12-21T03:02:14.313Z,83.1
2018-12-21T03:03:26.478Z,83.3
2018-12-21T03:04:41.277Z,83.4
2018-12-21T03:05:51.060Z,83.5
2018-12-21T03:07:03.139Z,83.6
2018-12-21T03:08:15.335Z,83.7
2018-12-21T03:09:27.566Z,83.6
2018-12-21T03:10:39.774Z,83.6
2018-12-21T03:11:51.912Z,83.7
2018-12-21T03:13:04.116Z,83.8
2018-12-21T03:14:16.394Z,83.7
2018-12-21T03:15:28.428Z,84
2018-12-21T03:16:40.795Z,83.5
2018-12-21T03:17:52.972Z,83.8
2018-12-21T03:19:05.077Z,83.9
2018-12-21T03:20:17.295Z,84
2018-12-21T03:21:29.580Z,84.1
2018-12-21T03:22:41.667Z,84.2
2018-12-21T03:23:53.879Z,84
2018-12-21T03:25:05.975Z,83.7
2018-12-21T03:26:18.163Z,83.6
2018-12-21T03:27:30.467Z,84.2
2018-12-21T03:28:42.557Z,83.5
2018-12-21T03:29:54.913Z,83.8
2018-12-21T03:31:06.957Z,83.8
2018-12-21T03:32:19.275Z,84
2018-12-21T03:33:31.442Z,83.6
2018-12-21T03:34:43.636Z,83.5
2018-12-21T03:35:55.717Z,83.8
2018-12-21T03:37:08.018Z,83.6
2018-12-21T03:38:20.112Z,83.5
2018-12-21T03:39:32.303Z,83.7
2018-12-21T03:40:44.932Z,83.7
2018-12-21T03:41:56.917Z,83.8
2018-12-21T03:43:08.963Z,83.6
2018-12-21T03:44:21.164Z,83.7
2018-12-21T03:45:33.263Z,83.4
2018-12-21T03:46:45.528Z,83.4
2018-12-21T03:47:57.733Z,83.4
2018-12-21T03:49:11.096Z,83.3
2018-12-21T03:50:22.137Z,83.3
2018-12-21T03:51:34.231Z,83.3
2018-12-21T03:52:46.677Z,83
2018-12-21T03:53:58.793Z,83
2018-12-21T03:55:10.903Z,82.5
2018-12-21T03:56:23.076Z,82.7
2018-12-21T03:57:35.206Z,82.5
2018-12-21T03:58:47.483Z,82.8
2018-12-21T03:59:59.663Z,82.5
2018-12-21T04:01:11.850Z,82.7
2018-12-21T04:02:24.152Z,82.7
2018-12-21T04:03:36.195Z,82.8
2018-12-21T04:04:48.455Z,82.2
2018-12-21T04:06:00.561Z,82.4
2018-12-21T04:07:12.847Z,82.4
2018-12-21T04:08:25.028Z,82.4
2018-12-21T04:09:37.137Z,82.4
2018-12-21T04:10:49.343Z,82.3
2018-12-21T04:12:01.539Z,82.5
2018-12-21T04:13:13.725Z,82.7
2018-12-21T04:14:26.010Z,82.8
2018-12-21T04:15:38.137Z,82.9
2018-12-21T04:16:50.402Z,82.7
2018-12-21T04:18:02.670Z,82.9
2018-12-21T04:19:14.691Z,82.8
2018-12-21T04:20:26.953Z,82.4
2018-12-21T04:21:39.088Z,82.6
2018-12-21T04:22:51.340Z,82.5
2018-12-21T04:24:03.459Z,82.7
2018-12-21T04:25:15.665Z,82.4
2018-12-21T04:26:27.927Z,83
2018-12-21T04:27:40.144Z,82.8
2018-12-21T04:28:52.315Z,83.2
2018-12-21T04:30:04.609Z,82.9
2018-12-21T04:31:16.820Z,83.1
2018-12-21T04:32:28.886Z,84.6
2018-12-21T04:33:41.011Z,86.2
2018-12-21T04:34:53.244Z,87.1
2018-12-21T04:36:05.411Z,87.4
2018-12-21T04:37:17.745Z,88.3
2018-12-21T04:38:29.877Z,88.9
2018-12-21T04:39:42.067Z,89.6
2018-12-21T04:40:54.256Z,90
2018-12-21T04:42:06.587Z,89.9
2018-12-21T04:43:18.681Z,90
2018-12-21T04:44:30.840Z,90.3
2018-12-21T04:45:42.970Z,90.5
2018-12-21T04:46:55.245Z,91.1
2018-12-21T04:48:07.465Z,91.3
2018-12-21T04:49:19.615Z,91.4
2018-12-21T04:50:31.919Z,91.7
2018-12-21T04:51:44.090Z,92.1
2018-12-21T04:52:56.120Z,92.3
2018-12-21T04:54:08.402Z,92.7
2018-12-21T04:55:20.514Z,93.5
2018-12-21T04:56:32.768Z,93.8
2018-12-21T04:57:44.912Z,94.3
2018-12-21T04:58:57.187Z,94.7
2018-12-21T05:00:09.351Z,95.1
2018-12-21T05:01:21.551Z,95.3
2018-12-21T05:02:33.776Z,95.8
2018-12-21T05:03:45.867Z,96
2018-12-21T05:04:58.150Z,96.3
2018-12-21T05:06:10.363Z,96.5
2018-12-21T05:07:22.604Z,96.7
2018-12-21T05:08:34.701Z,96.9
2018-12-21T05:09:46.833Z,97
2018-12-21T05:10:59.111Z,97.2
2018-12-21T05:12:11.285Z,97.3
2018-12-21T05:13:23.491Z,97.4
2018-12-21T05:14:35.725Z,97.5
2018-12-21T05:15:47.793Z,97.6
2018-12-21T05:17:00.013Z,97.6
2018-12-21T05:18:12.368Z,97.7
2018-12-21T05:19:24.480Z,97.8
2018-12-21T05:20:36.656Z,97.9
2018-12-21T05:21:48.809Z,98
2018-12-21T05:23:01.033Z,98
2018-12-21T05:24:13.222Z,98.1
2018-12-21T05:25:25.507Z,98.1
2018-12-21T05:26:37.625Z,98
2018-12-21T05:27:49.843Z,98.2
2018-12-21T05:29:01.926Z,98.2
2018-12-21T05:30:14.297Z,98.2
2018-12-21T05:31:26.411Z,98.2
2018-12-21T05:32:38.529Z,98.3
2018-12-21T05:33:50.805Z,98.3
2018-12-21T05:35:02.930Z,98.3
2018-12-21T05:36:15.181Z,98.3
2018-12-21T05:37:27.358Z,98.3
2018-12-21T05:38:39.547Z,98.3
2018-12-21T05:39:51.760Z,98.3
2018-12-21T05:41:03.865Z,98.4
2018-12-21T05:42:16.291Z,98.4
2018-12-21T05:43:28.327Z,98.4
2018-12-21T05:44:40.513Z,98.4
2018-12-21T05:45:52.793Z,98.4
2018-12-21T05:47:04.935Z,98.4
2018-12-21T05:48:17.214Z,98.4
2018-12-21T05:49:29.343Z,98.5
2018-12-21T05:50:41.504Z,98.5
2018-12-21T05:51:53.692Z,98.5
2018-12-21T05:53:05.951Z,98.5
2018-12-21T05:54:18.093Z,98.5
2018-12-21T05:55:30.288Z,98.3
2018-12-21T05:56:42.386Z,98.3
2018-12-21T05:57:54.654Z,98.2
2018-12-21T05:59:06.857Z,98.2
2018-12-21T06:00:19.038Z,98.2
2018-12-21T06:01:31.308Z,98.2
2018-12-21T06:02:43.432Z,98.2
2018-12-21T06:03:56.086Z,98.2
2018-12-21T06:05:07.749Z,98.2
2018-12-21T06:06:20.029Z,98.2
2018-12-21T06:07:32.132Z,98.3
2018-12-21T06:08:44.328Z,98.2
2018-12-21T06:09:56.588Z,98.2
2018-12-21T06:11:08.804Z,98.2
2018-12-21T06:12:20.995Z,98.3
2018-12-21T06:13:33.234Z,98.3
2018-12-21T06:14:45.319Z,98.3
2018-12-21T06:15:57.491Z,98.3
2018-12-21T06:17:09.681Z,98.5
2018-12-21T06:18:22.097Z,98.5
2018-12-21T06:19:34.232Z,98.5
2018-12-21T06:20:46.484Z,98.5
2018-12-21T06:21:58.564Z,98.6
2018-12-21T06:23:10.657Z,98.6
2018-12-21T06:24:22.932Z,98.6
2018-12-21T06:25:35.133Z,98.7
2018-12-21T06:26:47.366Z,98.6
2018-12-21T06:27:59.426Z,98.6
2018-12-21T06:29:11.699Z,98.6
2018-12-21T06:30:23.995Z,98.6
2018-12-21T06:31:36.013Z,98.5
2018-12-21T06:32:48.280Z,98.5
2018-12-21T06:34:00.471Z,98.5
2018-12-21T06:35:12.689Z,98.5
2018-12-21T06:36:24.880Z,98.5
2018-12-21T06:37:37.018Z,98.5
2018-12-21T06:38:49.179Z,98.6
2018-12-21T06:40:01.480Z,98.6
2018-12-21T06:41:13.645Z,98.6
2018-12-21T06:42:25.844Z,98.6
2018-12-21T06:43:38.016Z,98.7
2018-12-21T06:44:50.211Z,98.7
2018-12-21T06:46:02.418Z,98.7
2018-12-21T06:47:14.593Z,98.7
2018-12-21T06:48:26.799Z,98.7
2018-12-21T06:49:38.994Z,98.7
2018-12-21T06:50:51.169Z,98.7
2018-12-21T06:52:03.399Z,98.7
2018-12-21T06:53:15.569Z,98.7
2018-12-21T06:54:27.845Z,98.7
2018-12-21T06:55:40.036Z,98.7
2018-12-21T06:56:52.153Z,98.7
2018-12-21T06:58:04.357Z,98.7
2018-12-21T06:59:16.540Z,98.6
2018-12-21T07:00:28.727Z,98.7
2018-12-21T07:01:40.919Z,98.5
2018-12-21T07:02:53.137Z,98.6
2018-12-21T07:04:05.332Z,98.5
2018-12-21T07:05:17.554Z,98.3
2018-12-21T07:06:29.747Z,98.3
2018-12-21T07:07:41.844Z,98.3
2018-12-21T07:08:54.091Z,98.2
2018-12-21T07:10:06.202Z,98.3
2018-12-21T07:11:18.483Z,98.3
2018-12-21T07:12:30.670Z,98.3
2018-12-21T07:13:42.808Z,98.3
2018-12-21T07:14:55.081Z,98.3
2018-12-21T07:16:07.244Z,98.3
2018-12-21T07:17:19.366Z,98.3
2018-12-21T07:18:31.752Z,98.3
2018-12-21T07:19:43.827Z,98.5
2018-12-21T07:20:56.026Z,98.5
2018-12-21T07:22:08.150Z,98.5
2018-12-21T07:23:20.427Z,98.5
2018-12-21T07:24:32.616Z,98.5
2018-12-21T07:25:44.818Z,98.4
2018-12-21T07:26:57.081Z,98.5
2018-12-21T07:28:09.111Z,98.5
2018-12-21T07:29:21.494Z,98.5
2018-12-21T07:30:33.746Z,98.6
2018-12-21T07:31:45.799Z,98.6
2018-12-21T07:32:57.960Z,98.6
2018-12-21T07:34:10.175Z,98.6
2018-12-21T07:35:22.313Z,98.6
2018-12-21T07:36:34.575Z,98.6
2018-12-21T07:37:46.661Z,98.6
2018-12-21T07:38:58.940Z,98.6
2018-12-21T07:40:11.139Z,98.7
2018-12-21T07:41:23.319Z,98.7
2018-12-21T07:42:35.617Z,98.7
2018-12-21T07:43:47.707Z,98.7
2018-12-21T07:44:59.898Z,98.7
2018-12-21T07:46:12.260Z,98.7
2018-12-21T07:47:24.286Z,98.7
2018-12-21T07:48:36.515Z,98.7
2018-12-21T07:49:48.746Z,98.8
2018-12-21T07:51:00.895Z,98.8
2018-12-21T07:52:12.985Z,98.8
2018-12-21T07:53:25.252Z,98.8
2018-12-21T07:54:38.311Z,98.8
2018-12-21T07:55:49.736Z,98.8
2018-12-21T07:57:01.840Z,98.8
2018-12-21T07:58:14.106Z,98.8
2018-12-21T07:59:26.302Z,98.8
2018-12-21T08:00:41.469Z,98.8
2018-12-21T08:01:50.614Z,98.9
2018-12-21T08:03:02.801Z,98.9
2018-12-21T08:04:15.010Z,98.9
2018-12-21T08:05:27.138Z,98.9
2018-12-21T08:06:39.483Z,98.9
2018-12-21T08:07:51.687Z,98.9
2018-12-21T08:09:04.523Z,99
2018-12-21T08:10:15.891Z,99
2018-12-21T08:11:28.091Z,99
2018-12-21T08:12:40.355Z,99
2018-12-21T08:13:52.542Z,99
2018-12-21T08:15:04.791Z,98.9
2018-12-21T08:16:16.945Z,98.9
2018-12-21T08:17:29.861Z,98.9
2018-12-21T08:18:41.446Z,98.9
2018-12-21T08:19:53.512Z,98.9
2018-12-21T08:21:05.630Z,99
2018-12-21T08:22:17.869Z,99
2018-12-21T08:23:30.101Z,99
2018-12-21T08:24:42.307Z,99
2018-12-21T08:25:54.527Z,99
2018-12-21T08:27:06.681Z,99
2018-12-21T08:28:18.871Z,99
2018-12-21T08:29:31.078Z,99.1
2018-12-21T08:30:43.384Z,99.1
2018-12-21T08:31:55.378Z,99.1
2018-12-21T08:33:07.648Z,99.1
2018-12-21T08:34:19.843Z,99.1
2018-12-21T08:35:32.057Z,99.1
2018-12-21T08:36:44.233Z,99.1
2018-12-21T08:37:56.344Z,99.1
2018-12-21T08:39:08.610Z,99.1
2018-12-21T08:40:20.743Z,99.2
2018-12-21T08:41:33.029Z,99.2
2018-12-21T08:42:45.287Z,99.2
2018-12-21T08:43:57.310Z,99.2
2018-12-21T08:45:09.590Z,99.2
2018-12-21T08:46:21.772Z,99.3
2018-12-21T08:47:33.907Z,99.3
2018-12-21T08:48:46.185Z,99.3
2018-12-21T08:49:58.306Z,99.3
2018-12-21T08:51:10.551Z,99.3
2018-12-21T08:52:22.749Z,99.3
2018-12-21T08:53:34.934Z,99.3
2018-12-21T08:54:47.175Z,99.3
2018-12-21T08:55:59.349Z,99.3
2018-12-21T08:57:11.452Z,99.3
2018-12-21T08:58:23.642Z,99.3
2018-12-21T08:59:35.928Z,99.3
2018-12-21T09:00:48.098Z,99.3
2018-12-21T09:02:00.226Z,99.3
2018-12-21T09:03:12.507Z,99.4
2018-12-21T09:04:24.748Z,99.3
2018-12-21T09:05:36.896Z,99.4
2018-12-21T09:06:49.091Z,99.4
2018-12-21T09:08:01.374Z,99.4
2018-12-21T09:09:13.456Z,99.4
2018-12-21T09:10:25.674Z,99.4
2018-12-21T09:11:37.797Z,99.4
2018-12-21T09:12:50.054Z,99.4
2018-12-21T09:14:02.262Z,99.4
2018-12-21T09:15:14.425Z,99.4
2018-12-21T09:16:26.620Z,99.4
2018-12-21T09:17:38.833Z,99.4
2018-12-21T09:18:51.023Z,99.5
2018-12-21T09:20:05.186Z,99.5
2018-12-21T09:21:15.396Z,99.5
2018-12-21T09:22:27.611Z,99.5
2018-12-21T09:23:39.783Z,99.5
2018-12-21T09:24:52.045Z,99.5
2018-12-21T09:26:04.235Z,99.6
2018-12-21T09:27:16.411Z,99.6
2018-12-21T09:28:28.568Z,99.6
2018-12-21T09:29:40.812Z,99.6
2018-12-21T09:30:53.435Z,99.6
2018-12-21T09:32:05.284Z,99.6
2018-12-21T09:33:17.289Z,99.7
2018-12-21T09:34:29.531Z,99.5
2018-12-21T09:35:41.648Z,99.5
2018-12-21T09:36:53.943Z,99.6
2018-12-21T09:38:06.035Z,99.5
2018-12-21T09:39:18.223Z,99.6
2018-12-21T09:40:30.505Z,99.6
2018-12-21T09:41:42.682Z,99.6
2018-12-21T09:42:54.994Z,99.6
2018-12-21T09:44:07.069Z,99.6
2018-12-21T09:45:19.201Z,99.6
2018-12-21T09:46:31.500Z,99.6
2018-12-21T09:47:43.654Z,99.6
2018-12-21T09:48:55.849Z,99.6
2018-12-21T09:50:08.037Z,99.6
2018-12-21T09:51:20.244Z,99.6
2018-12-21T09:52:32.536Z,99.6
2018-12-21T09:53:44.643Z,99.6
2018-12-21T09:54:56.836Z,99.6
2018-12-21T09:56:09.008Z,99.6
2018-12-21T09:57:21.188Z,99.6
2018-12-21T09:58:33.493Z,99.6
2018-12-21T09:59:45.621Z,99.6
2018-12-21T10:00:57.801Z,99.6
2018-12-21T10:02:09.917Z,99.6
2018-12-21T10:03:22.203Z,99.6
2018-12-21T10:04:34.371Z,99.6
2018-12-21T10:05:46.494Z,99.6
2018-12-21T10:06:58.886Z,99.6
2018-12-21T10:08:10.959Z,99.7
2018-12-21T10:09:23.139Z,99.7
2018-12-21T10:10:35.317Z,99.6
2018-12-21T10:11:47.560Z,99.6
2018-12-21T10:12:59.739Z,99.5
2018-12-21T10:14:11.973Z,99.6
2018-12-21T10:15:24.130Z,99.6
2018-12-21T10:16:36.345Z,99.6
2018-12-21T10:17:48.530Z,99.5
2018-12-21T10:19:00.799Z,99.5
2018-12-21T10:20:12.836Z,99.5
2018-12-21T10:21:26.675Z,99.5
2018-12-21T10:22:37.323Z,99.5
2018-12-21T10:23:49.432Z,99.5
2018-12-21T10:25:01.690Z,99.5
2018-12-21T10:26:13.868Z,99.5
2018-12-21T10:27:26.085Z,99.5
2018-12-21T10:28:38.246Z,99.5
2018-12-21T10:29:50.431Z,99.5
2018-12-21T10:31:02.731Z,99.5
2018-12-21T10:32:14.819Z,99.5
2018-12-21T10:33:26.946Z,99.5
2018-12-21T10:34:39.223Z,99.5
2018-12-21T10:35:51.418Z,99.5
2018-12-21T10:37:03.528Z,99.4
2018-12-21T10:38:15.851Z,99.5
2018-12-21T10:39:28.004Z,99.5
2018-12-21T10:40:40.138Z,99.5
2018-12-21T10:41:52.377Z,99.4
2018-12-21T10:43:04.665Z,99.3
2018-12-21T10:44:16.789Z,99.3
2018-12-21T10:45:28.956Z,99.4
2018-12-21T10:46:41.245Z,99.4
2018-12-21T10:47:53.365Z,99.3
2018-12-21T10:49:05.539Z,99.4
2018-12-21T10:50:17.666Z,99.4
2018-12-21T10:51:29.918Z,99.4
2018-12-21T10:52:42.127Z,99.4
2018-12-21T10:53:54.326Z,99.4
2018-12-21T10:55:06.595Z,99.3
2018-12-21T10:56:18.628Z,99.3
2018-12-21T10:57:30.848Z,99.3
2018-12-21T10:58:43.151Z,99.2
2018-12-21T10:59:55.291Z,99
2018-12-21T11:01:07.512Z,98.9
2018-12-21T11:02:19.625Z,98.7
2018-12-21T11:03:31.895Z,98.5
2018-12-21T11:04:44.070Z,98.2
2018-12-21T11:05:56.326Z,98
2018-12-21T11:07:08.565Z,97.6
2018-12-21T11:08:20.663Z,97.4
2018-12-21T11:09:32.856Z,97.3
2018-12-21T11:10:45.056Z,97.2
2018-12-21T11:11:57.234Z,97.1
2018-12-21T11:13:09.525Z,97.1
2018-12-21T11:14:21.638Z,97.1
2018-12-21T11:15:33.818Z,97
2018-12-21T11:16:46.004Z,96.8
2018-12-21T11:17:58.136Z,96.8
2018-12-21T11:19:10.490Z,96.7
2018-12-21T11:20:22.568Z,96.7
2018-12-21T11:21:34.769Z,96.7
2018-12-21T11:22:46.999Z,96.6
2018-12-21T11:23:59.210Z,96.5
2018-12-21T11:25:11.413Z,96.3
2018-12-21T11:26:23.591Z,96.2
2018-12-21T11:27:35.768Z,96.2
2018-12-21T11:28:47.967Z,96.2
2018-12-21T11:30:00.155Z,96
2018-12-21T11:31:12.446Z,96.2
2018-12-21T11:32:24.469Z,96.2
2018-12-21T11:33:36.808Z,95.9
2018-12-21T11:34:48.872Z,95.9
2018-12-21T11:36:01.145Z,96.1
2018-12-21T11:37:13.340Z,95.9
2018-12-21T11:38:25.571Z,95.9
2018-12-21T11:39:37.742Z,95.8
2018-12-21T11:40:49.913Z,95.8
2018-12-21T11:42:02.126Z,96
2018-12-21T11:43:14.415Z,95.8
2018-12-21T11:44:26.430Z,95.6
2018-12-21T11:45:38.714Z,95.5
2018-12-21T11:46:50.816Z,95.2
2018-12-21T11:48:03.089Z,95.1
2018-12-21T11:49:15.291Z,95.1
2018-12-21T11:50:27.405Z,95.2
2018-12-21T11:51:39.808Z,95.5
2018-12-21T11:52:51.791Z,95.5
2018-12-21T11:54:04.081Z,95.5
2018-12-21T11:55:16.416Z,95.1
2018-12-21T11:56:28.476Z,94.9
2018-12-21T11:57:40.654Z,94.6
2018-12-21T11:58:52.800Z,94.4
2018-12-21T12:00:05.034Z,94.4
2018-12-21T12:01:17.233Z,94.6
2018-12-21T12:02:29.441Z,94
2018-12-21T12:03:41.557Z,94
2018-12-21T12:04:53.821Z,94.2
2018-12-21T12:06:06.038Z,94.4
2018-12-21T12:07:18.326Z,94.5
2018-12-21T12:08:30.408Z,94.9
2018-12-21T12:09:42.614Z,94.3
2018-12-21T12:10:54.805Z,94
2018-12-21T12:12:07.088Z,94
2018-12-21T12:13:19.296Z,94.5
2018-12-21T12:14:31.443Z,94.4
2018-12-21T12:15:43.668Z,94.3
2018-12-21T12:16:55.778Z,93.8
2018-12-21T12:18:07.907Z,93.9
2018-12-21T12:19:20.172Z,94
2018-12-21T12:20:32.371Z,93.8
2018-12-21T12:21:44.507Z,93.4
2018-12-21T12:22:56.672Z,92.8
2018-12-21T12:24:08.935Z,93
2018-12-21T12:25:21.207Z,93.3
2018-12-21T12:26:33.325Z,93.1
2018-12-21T12:27:45.461Z,92.4
2018-12-21T12:28:57.678Z,92.8
2018-12-21T12:30:10.147Z,92.9
2018-12-21T12:31:22.130Z,93.2
2018-12-21T12:32:34.256Z,93.4
2018-12-21T12:33:46.511Z,92.9
2018-12-21T12:34:58.697Z,93.2
2018-12-21T12:36:10.892Z,93.7
2018-12-21T12:37:23.613Z,94
2018-12-21T12:38:35.222Z,93.6
2018-12-21T12:39:47.632Z,93.1
2018-12-21T12:40:59.674Z,92.9
2018-12-21T12:42:11.888Z,93.1
2018-12-21T12:43:24.091Z,93.1
2018-12-21T12:44:36.347Z,92.7
2018-12-21T12:45:48.782Z,92.5
2018-12-21T12:47:00.575Z,93.1
2018-12-21T12:48:12.900Z,92.8
2018-12-21T12:49:25.173Z,92.7
2018-12-21T12:50:37.247Z,92.2
2018-12-21T12:51:49.490Z,92.4
2018-12-21T12:53:01.623Z,92.4
2018-12-21T12:54:13.957Z,93
2018-12-21T12:55:26.571Z,92
2018-12-21T12:56:38.224Z,92.5
2018-12-21T12:57:50.338Z,91.9
2018-12-21T12:59:02.862Z,92.4
2018-12-21T13:00:14.824Z,92.9
2018-12-21T13:01:27.076Z,93.2
2018-12-21T13:02:39.208Z,92.9
2018-12-21T13:03:51.314Z,92.9
2018-12-21T13:05:03.623Z,92.7
2018-12-21T13:06:15.781Z,92.9
2018-12-21T13:07:28.498Z,92.4
2018-12-21T13:08:40.274Z,92.4
2018-12-21T13:09:52.411Z,92.8
2018-12-21T13:11:04.583Z,92.4
2018-12-21T13:12:16.775Z,92.3
2018-12-21T13:13:29.011Z,92.5
2018-12-21T13:14:41.124Z,91.2
2018-12-21T13:15:53.278Z,91.8
2018-12-21T13:17:05.535Z,91.4
2018-12-21T13:18:17.749Z,92.3
2018-12-21T13:19:30.020Z,92.5
2018-12-21T13:20:42.156Z,92.2
2018-12-21T13:21:54.326Z,91.1
2018-12-21T13:23:06.563Z,91.5
2018-12-21T13:24:18.715Z,90.7
2018-12-21T13:25:30.912Z,91.1
2018-12-21T13:26:43.099Z,90.6
2018-12-21T13:27:55.223Z,90.6
2018-12-21T13:29:07.419Z,91.5
2018-12-21T13:30:19.690Z,90
2018-12-21T13:31:31.873Z,89.9
2018-12-21T13:32:44.002Z,89.9
2018-12-21T13:33:59.453Z,90.2
2018-12-21T13:35:08.810Z,90.1
2018-12-21T13:36:20.664Z,90.1
2018-12-21T13:37:32.799Z,90.2
2018-12-21T13:38:45.040Z,90.2
2018-12-21T13:39:57.472Z,90
2018-12-21T13:41:09.457Z,90.4
2018-12-21T13:42:21.646Z,90.4
2018-12-21T13:43:33.930Z,90.4
2018-12-21T13:44:45.963Z,89.9
2018-12-21T13:45:58.154Z,89.4
2018-12-21T13:47:10.421Z,89.6
2018-12-21T13:48:22.541Z,90.2
2018-12-21T13:49:34.800Z,88.6
2018-12-21T13:50:47.003Z,89.4
2018-12-21T13:51:59.125Z,89.3
2018-12-21T13:53:11.407Z,89.6
2018-12-21T13:54:23.599Z,88.2
2018-12-21T13:55:35.833Z,89.2
2018-12-21T13:56:48.100Z,88.2
2018-12-21T13:58:00.182Z,89.7
2018-12-21T13:59:12.297Z,88.3
2018-12-21T14:00:24.498Z,89.4
2018-12-21T14:01:36.752Z,88.6
2018-12-21T14:02:48.956Z,90.2
2018-12-21T14:04:01.163Z,89
2018-12-21T14:05:13.361Z,89.6
2018-12-21T14:06:25.561Z,89.8
2018-12-21T14:07:37.837Z,89.3
2018-12-21T14:08:49.869Z,89.6
2018-12-21T14:10:02.133Z,89.8
2018-12-21T14:11:14.330Z,88.4
2018-12-21T14:12:26.441Z,88.6
2018-12-21T14:13:39.543Z,88.8
2018-12-21T14:14:50.925Z,87.5
2018-12-21T14:16:03.097Z,88.5
2018-12-21T14:17:15.224Z,88.7
2018-12-21T14:18:27.590Z,88.3
2018-12-21T14:19:39.776Z,88.5
2018-12-21T14:20:51.881Z,88.5
2018-12-21T14:22:04.196Z,88.6
2018-12-21T14:23:16.223Z,88.3
2018-12-21T14:24:28.463Z,89.1
2018-12-21T14:25:40.675Z,86.4
2018-12-21T14:26:52.810Z,88.5
2018-12-21T14:28:05.074Z,89
2018-12-21T14:29:17.239Z,88.3
2018-12-21T14:30:29.452Z,88.8
2018-12-21T14:31:41.777Z,88.9
2018-12-21T14:32:53.774Z,88.3
2018-12-21T14:34:06.029Z,88.7
2018-12-21T14:35:18.470Z,87.2
2018-12-21T14:36:30.347Z,86.9
2018-12-21T14:37:42.635Z,85.9
2018-12-21T14:38:54.733Z,86.9
2018-12-21T14:40:06.927Z,86.5
2018-12-21T14:41:19.129Z,87.5
2018-12-21T14:42:31.352Z,86.9
2018-12-21T14:43:43.703Z,87.3
2018-12-21T14:44:55.863Z,88.4
2018-12-21T14:46:07.982Z,87.6
2018-12-21T14:47:20.119Z,86
2018-12-21T14:48:32.408Z,87.9
2018-12-21T14:49:44.598Z,86.5
2018-12-21T14:50:56.762Z,86.9
2018-12-21T14:52:08.967Z,87
2018-12-21T14:53:21.191Z,87.5
2018-12-21T14:54:33.358Z,87
2018-12-21T14:55:45.677Z,87.5
2018-12-21T14:56:57.656Z,87.8
2018-12-21T14:58:09.859Z,88.5
2018-12-21T14:59:22.130Z,87.2
2018-12-21T15:00:34.314Z,88.5
2018-12-21T15:01:46.517Z,88.9
2018-12-21T15:02:58.719Z,88.6
2018-12-21T15:04:10.913Z,88.4
2018-12-21T15:05:23.118Z,88.7
2018-12-21T15:06:35.307Z,88.4
2018-12-21T15:07:47.523Z,88.6
2018-12-21T15:08:59.640Z,88.5
2018-12-21T15:10:11.836Z,86.6
2018-12-21T15:11:24.095Z,87
2018-12-21T15:12:36.292Z,87.2
2018-12-21T15:13:48.591Z,88.1
2018-12-21T15:15:00.606Z,87.7
2018-12-21T15:16:12.873Z,87
2018-12-21T15:17:25.050Z,87.8
2018-12-21T15:18:37.309Z,88.6
2018-12-21T15:19:49.546Z,88.5
2018-12-21T15:21:01.657Z,88.1
2018-12-21T15:22:13.846Z,87.6
2018-12-21T15:23:26.067Z,88.1
2018-12-21T15:24:38.233Z,88.2
2018-12-21T15:25:50.446Z,88.4
2018-12-21T15:27:02.625Z,88.3
2018-12-21T15:28:14.838Z,87.6
2018-12-21T15:29:27.043Z,87.5
2018-12-21T15:30:39.202Z,87.5
2018-12-21T15:31:51.487Z,88.2
2018-12-21T15:33:03.597Z,88.4
2018-12-21T15:34:15.829Z,87.3
2018-12-21T15:35:30.720Z,87.8
2018-12-21T15:36:40.206Z,86.3
2018-12-21T15:37:52.404Z,86.6
2018-12-21T15:39:04.584Z,85.3
2018-12-21T15:40:16.784Z,85.1
2018-12-21T15:41:28.962Z,85.5
2018-12-21T15:42:41.113Z,85.2
2018-12-21T15:43:53.463Z,83.5
2018-12-21T15:45:05.571Z,85
2018-12-21T15:46:17.733Z,83.6
2018-12-21T15:47:29.904Z,83.3
2018-12-21T15:48:42.059Z,83.6
2018-12-21T15:49:54.326Z,83
2018-12-21T15:51:06.555Z,83.3
2018-12-21T15:52:18.723Z,85.1
2018-12-21T15:53:30.920Z,84.4
2018-12-21T15:54:43.113Z,81.8
2018-12-21T15:55:55.408Z,84.3
2018-12-21T15:57:07.507Z,83.4
2018-12-21T15:58:19.696Z,83.5
2018-12-21T15:59:31.818Z,83.7
2018-12-21T16:00:44.143Z,83.3
2018-12-21T16:01:56.411Z,83.4
2018-12-21T16:03:08.407Z,83.2
2018-12-21T16:04:20.763Z,83.9
2018-12-21T16:05:32.808Z,83.5
2018-12-21T16:06:45.064Z,83.9
2018-12-21T16:07:57.278Z,82.5